createdAt,value
2023-03-22T00:01:57.669Z,60.40
2023-03-22T00:04:24.171Z,60.40
2023-03-22T00:06:50.647Z,60.40
2023-03-22T00:09:17.143Z,60.40
2023-03-22T00:11:43.631Z,60.40
2023-03-22T00:14:10.145Z,60.40
2023-03-22T00:16:36.669Z,60.40
2023-03-22T00:19:03.180Z,60.50
2023-03-22T00:21:29.618Z,60.50
2023-03-22T00:23:56.104Z,60.40
2023-03-22T00:26:22.572Z,60.40
2023-03-22T00:28:49.058Z,60.40
2023-03-22T00:31:18.823Z,60.40
2023-03-22T00:33:45.324Z,60.40
2023-03-22T00:36:11.810Z,60.40
2023-03-22T00:38:44.116Z,60.50
2023-03-22T00:41:11.015Z,60.50
2023-03-22T00:43:37.523Z,60.50
2023-03-22T00:46:04.059Z,60.40
2023-03-22T00:48:30.535Z,60.40
2023-03-22T00:50:57.032Z,60.40
2023-03-22T00:53:23.512Z,60.40
2023-03-22T00:55:49.986Z,60.40
2023-03-22T00:58:16.494Z,60.40
2023-03-22T01:00:43.035Z,60.40
2023-03-22T01:03:09.617Z,60.40
2023-03-22T01:05:36.132Z,60.40
2023-03-22T01:08:02.640Z,60.30
2023-03-22T01:10:29.139Z,60.40
2023-03-22T01:12:55.631Z,60.40
2023-03-22T01:15:22.117Z,60.40
2023-03-22T01:17:48.608Z,60.50
2023-03-22T01:20:15.092Z,60.40
2023-03-22T01:22:41.726Z,60.40
2023-03-22T01:25:08.217Z,60.40
2023-03-22T01:27:34.703Z,60.50
2023-03-22T01:30:01.206Z,60.40
2023-03-22T01:32:27.713Z,60.40
2023-03-22T01:34:54.210Z,60.40
2023-03-22T01:37:24.740Z,60.40
2023-03-22T01:39:51.210Z,60.50
2023-03-22T01:42:17.700Z,60.50
2023-03-22T01:44:48.672Z,60.50
2023-03-22T01:47:15.163Z,60.40
2023-03-22T01:49:41.667Z,60.50
2023-03-22T01:52:08.159Z,60.50
2023-03-22T01:54:34.677Z,60.50
2023-03-22T01:57:01.168Z,60.50
2023-03-22T01:59:27.681Z,60.40
2023-03-22T02:01:54.178Z,60.40
2023-03-22T02:04:20.680Z,60.40
2023-03-22T02:06:47.184Z,60.40
2023-03-22T02:09:13.680Z,60.40
2023-03-22T02:11:40.172Z,60.50
2023-03-22T02:14:06.657Z,60.40
2023-03-22T02:16:33.160Z,60.40
2023-03-22T02:18:59.646Z,60.50
2023-03-22T02:21:26.127Z,60.50
2023-03-22T02:23:52.630Z,60.50
2023-03-22T02:26:19.147Z,60.50
2023-03-22T02:28:45.622Z,60.50
2023-03-22T02:31:12.195Z,60.60
2023-03-22T02:33:41.191Z,60.50
2023-03-22T02:36:08.140Z,60.50
2023-03-22T02:38:34.634Z,60.50
2023-03-22T02:41:01.123Z,60.50
2023-03-22T02:43:27.602Z,60.50
2023-03-22T02:45:54.092Z,60.50
2023-03-22T02:48:20.611Z,60.50
2023-03-22T02:50:47.113Z,60.50
2023-03-22T02:53:13.583Z,60.60
2023-03-22T02:55:42.744Z,60.60
2023-03-22T02:58:09.227Z,60.50
2023-03-22T03:00:35.747Z,60.50
2023-03-22T03:03:02.272Z,60.50
2023-03-22T03:05:28.742Z,60.60
2023-03-22T03:07:55.230Z,60.60
2023-03-22T03:10:21.753Z,60.60
2023-03-22T03:12:48.237Z,60.60
2023-03-22T03:15:14.714Z,60.60
2023-03-22T03:17:41.203Z,60.70
2023-03-22T03:20:07.705Z,60.60
2023-03-22T03:22:34.185Z,60.60
2023-03-22T03:25:00.664Z,60.60
2023-03-22T03:27:27.157Z,60.50
2023-03-22T03:29:53.652Z,60.50
2023-03-22T03:32:20.129Z,60.60
2023-03-22T03:34:46.607Z,60.60
2023-03-22T03:37:13.122Z,60.50
2023-03-22T03:39:39.603Z,60.70
2023-03-22T03:42:06.122Z,60.70
2023-03-22T03:44:32.612Z,60.70
2023-03-22T03:46:59.104Z,60.60
2023-03-22T03:49:25.577Z,60.60
2023-03-22T03:51:52.049Z,60.60
2023-03-22T03:54:18.539Z,60.70
2023-03-22T03:56:45.043Z,60.60
2023-03-22T03:59:11.531Z,60.60
2023-03-22T04:01:38.025Z,60.60
2023-03-22T04:04:06.789Z,60.70
2023-03-22T04:06:33.292Z,60.60
2023-03-22T04:08:59.785Z,60.70
2023-03-22T04:11:26.287Z,60.60
2023-03-22T04:13:52.761Z,60.60
2023-03-22T04:16:24.848Z,60.60
2023-03-22T04:18:51.385Z,60.60
2023-03-22T04:21:17.879Z,60.50
2023-03-22T04:23:44.363Z,60.60
2023-03-22T04:26:10.849Z,60.60
2023-03-22T04:28:37.322Z,60.60
2023-03-22T04:31:03.898Z,60.60
2023-03-22T04:33:30.436Z,60.60
2023-03-22T04:35:57.322Z,60.60
2023-03-22T04:38:24.033Z,60.60
2023-03-22T04:40:50.527Z,60.50
2023-03-22T04:43:17.013Z,60.50
2023-03-22T04:45:48.903Z,60.60
2023-03-22T04:48:15.445Z,60.60
2023-03-22T04:50:42.138Z,60.60
2023-03-22T04:53:08.703Z,60.60
2023-03-22T04:55:35.203Z,60.60
2023-03-22T04:58:01.688Z,60.50
2023-03-22T05:00:28.198Z,60.60
2023-03-22T05:02:54.753Z,60.60
2023-03-22T05:05:21.286Z,60.60
2023-03-22T05:07:47.780Z,60.60
2023-03-22T05:10:14.264Z,60.50
2023-03-22T05:12:40.740Z,60.50
2023-03-22T05:15:07.418Z,60.50
2023-03-22T05:17:36.860Z,60.50
2023-03-22T05:20:03.327Z,60.50
2023-03-22T05:22:29.810Z,60.50
2023-03-22T05:24:56.279Z,60.50
2023-03-22T05:27:22.774Z,60.50
2023-03-22T05:29:49.260Z,60.50
2023-03-22T05:32:15.732Z,60.40
2023-03-22T05:34:42.211Z,60.40
2023-03-22T05:37:08.678Z,60.50
2023-03-22T05:39:35.153Z,60.50
2023-03-22T05:42:01.623Z,60.50
2023-03-22T05:44:28.121Z,60.50
2023-03-22T05:46:54.653Z,60.50
2023-03-22T05:49:21.148Z,60.50
2023-03-22T05:51:47.886Z,60.40
2023-03-22T05:54:14.374Z,60.40
2023-03-22T05:56:40.848Z,60.40
2023-03-22T05:59:07.324Z,60.40
2023-03-22T06:01:33.855Z,60.50
2023-03-22T06:04:00.383Z,60.50
2023-03-22T06:06:26.877Z,60.50
2023-03-22T06:08:53.368Z,60.50
2023-03-22T06:11:19.870Z,60.50
2023-03-22T06:13:46.361Z,60.40
2023-03-22T06:16:12.992Z,60.40
2023-03-22T06:18:39.512Z,60.50
2023-03-22T06:21:06.023Z,60.50
2023-03-22T06:23:32.518Z,60.60
2023-03-22T06:25:59.023Z,60.50
2023-03-22T06:28:25.508Z,60.40
2023-03-22T06:30:52.083Z,60.50
2023-03-22T06:33:18.606Z,60.50
2023-03-22T06:35:45.218Z,60.50
2023-03-22T06:38:11.731Z,60.50
2023-03-22T06:40:38.637Z,60.50
2023-03-22T06:43:07.243Z,60.50
2023-03-22T06:45:33.950Z,60.50
2023-03-22T06:48:00.443Z,60.50
2023-03-22T06:50:26.949Z,60.50
2023-03-22T06:52:53.439Z,60.60
2023-03-22T06:55:19.936Z,60.50
2023-03-22T06:57:46.448Z,60.50
2023-03-22T07:00:12.923Z,60.60
2023-03-22T07:02:39.417Z,60.50
2023-03-22T07:05:05.883Z,60.60
2023-03-22T07:07:36.950Z,60.60
2023-03-22T07:10:03.445Z,60.60
2023-03-22T07:12:29.932Z,60.60
2023-03-22T07:14:56.657Z,60.60
2023-03-22T07:17:23.149Z,60.60
2023-03-22T07:19:49.849Z,60.60
2023-03-22T07:22:16.333Z,60.60
2023-03-22T07:24:55.821Z,60.60
2023-03-22T07:27:25.003Z,60.60
2023-03-22T07:29:51.534Z,60.60
2023-03-22T07:32:18.080Z,60.60
2023-03-22T07:34:44.576Z,60.60
2023-03-22T07:37:13.101Z,60.60
2023-03-22T07:39:39.598Z,60.60
2023-03-22T07:42:06.098Z,60.60
2023-03-22T07:44:37.165Z,60.60
2023-03-22T07:47:03.679Z,60.60
2023-03-22T07:49:30.208Z,60.60
2023-03-22T07:51:56.698Z,60.60
2023-03-22T07:54:33.348Z,60.60
2023-03-22T07:57:00.593Z,60.60
2023-03-22T07:59:27.090Z,60.60
2023-03-22T08:01:53.612Z,60.70
2023-03-22T08:04:20.137Z,60.50
2023-03-22T08:06:46.643Z,60.60
2023-03-22T08:09:13.138Z,60.50
2023-03-22T08:11:39.651Z,60.60
2023-03-22T08:14:06.296Z,60.50
2023-03-22T08:16:32.894Z,60.40
2023-03-22T08:18:59.448Z,60.60
2023-03-22T08:21:31.005Z,60.50
2023-03-22T08:23:57.497Z,60.50
2023-03-22T08:26:23.991Z,60.50
2023-03-22T08:28:50.497Z,60.50
2023-03-22T08:31:17.090Z,60.60
2023-03-22T08:33:43.668Z,60.50
2023-03-22T08:36:10.262Z,60.50
2023-03-22T08:38:36.765Z,60.40
2023-03-22T08:41:03.291Z,60.40
2023-03-22T08:43:29.820Z,60.50
2023-03-22T08:45:56.327Z,60.50
2023-03-22T08:48:22.957Z,60.40
2023-03-22T08:50:49.481Z,60.40
2023-03-22T08:53:15.962Z,60.30
2023-03-22T08:55:42.569Z,60.30
2023-03-22T08:58:09.038Z,60.30
2023-03-22T09:00:47.786Z,60.30
2023-03-22T09:03:15.330Z,60.20
2023-03-22T09:05:41.995Z,60.30
2023-03-22T09:08:08.517Z,60.20
2023-03-22T09:10:35.019Z,60.30
2023-03-22T09:13:01.505Z,60.30
2023-03-22T09:15:28.005Z,60.20
2023-03-22T09:17:54.502Z,60.10
2023-03-22T09:20:20.995Z,60.20
2023-03-22T09:22:47.474Z,60.10
2023-03-22T09:25:13.963Z,60.00
2023-03-22T09:27:40.485Z,60.10
2023-03-22T09:30:06.980Z,60.00
2023-03-22T09:32:33.731Z,60.00
2023-03-22T09:35:00.200Z,60.00
2023-03-22T09:37:26.698Z,60.00
2023-03-22T09:39:53.192Z,59.90
2023-03-22T09:42:25.077Z,59.80
2023-03-22T09:44:51.558Z,59.80
2023-03-22T09:47:18.038Z,59.80
2023-03-22T09:49:53.429Z,59.70
2023-03-22T09:52:20.680Z,59.70
2023-03-22T09:54:47.191Z,59.60
2023-03-22T09:57:13.707Z,59.60
2023-03-22T09:59:40.196Z,59.60
2023-03-22T10:02:06.807Z,59.50
2023-03-22T10:04:33.488Z,59.60
2023-03-22T10:07:00.007Z,59.50
2023-03-22T10:09:31.170Z,59.50
2023-03-22T10:12:01.245Z,59.50
2023-03-22T10:14:27.731Z,59.40
2023-03-22T10:16:55.378Z,59.40
2023-03-22T10:19:23.071Z,59.40
2023-03-22T10:21:49.569Z,59.30
2023-03-22T10:24:16.050Z,59.30
2023-03-22T10:26:42.530Z,59.30
2023-03-22T10:29:09.004Z,59.30
2023-03-22T10:31:35.507Z,59.30
2023-03-22T10:34:02.021Z,59.10
2023-03-22T10:36:28.512Z,59.20
2023-03-22T10:38:55.030Z,59.10
2023-03-22T10:41:21.528Z,59.00
2023-03-22T10:43:48.006Z,58.90
2023-03-22T10:46:14.525Z,58.80
2023-03-22T10:48:41.046Z,58.90
2023-03-22T10:51:07.545Z,58.80
2023-03-22T10:53:34.049Z,58.80
2023-03-22T10:56:00.534Z,58.80
2023-03-22T10:58:27.042Z,58.80
2023-03-22T11:00:53.635Z,58.70
2023-03-22T11:03:20.523Z,58.70
2023-03-22T11:05:47.022Z,58.70
2023-03-22T11:08:13.509Z,58.60
2023-03-22T11:10:40.065Z,58.50
2023-03-22T11:13:06.563Z,58.50
2023-03-22T11:15:33.045Z,58.50
2023-03-22T11:17:59.525Z,58.40
2023-03-22T11:20:26.076Z,58.30
2023-03-22T11:22:52.609Z,58.30
2023-03-22T11:25:19.145Z,58.30
2023-03-22T11:27:45.636Z,58.20
2023-03-22T11:30:12.130Z,58.20
2023-03-22T11:32:43.251Z,58.20
2023-03-22T11:35:09.749Z,58.10
2023-03-22T11:37:36.228Z,58.10
2023-03-22T11:40:02.827Z,58.10
2023-03-22T11:42:31.124Z,58.00
2023-03-22T11:44:57.634Z,58.10
2023-03-22T11:47:24.139Z,58.10
2023-03-22T11:49:50.774Z,58.10
2023-03-22T11:52:17.285Z,58.10
2023-03-22T11:54:43.804Z,58.10
2023-03-22T11:57:10.291Z,58.10
2023-03-22T11:59:36.806Z,58.10
2023-03-22T12:02:03.374Z,58.00
2023-03-22T12:04:29.951Z,58.10
2023-03-22T12:06:56.473Z,58.10
2023-03-22T12:09:23.018Z,58.00
2023-03-22T12:11:49.529Z,58.00
2023-03-22T12:14:16.025Z,58.00
2023-03-22T12:16:42.637Z,57.90
2023-03-22T12:19:09.180Z,58.00
2023-03-22T12:21:37.225Z,58.00
2023-03-22T12:24:03.726Z,57.90
2023-03-22T12:26:30.210Z,58.00
2023-03-22T12:28:56.713Z,57.90
2023-03-22T12:31:25.232Z,57.90
2023-03-22T12:33:51.757Z,57.80
2023-03-22T12:36:18.306Z,57.80
2023-03-22T12:38:44.904Z,57.90
2023-03-22T12:41:13.220Z,57.90
2023-03-22T12:43:39.718Z,58.00
2023-03-22T12:48:57.096Z,57.90
2023-03-22T12:51:23.611Z,57.90
2023-03-22T12:53:50.106Z,57.90
2023-03-22T12:56:16.597Z,57.90
2023-03-22T12:58:45.241Z,57.90
2023-03-22T13:01:11.913Z,57.90
2023-03-22T13:03:38.587Z,57.70
2023-03-22T13:06:05.184Z,57.80
2023-03-22T13:08:37.440Z,57.90
2023-03-22T13:11:04.116Z,57.90
2023-03-22T13:13:30.606Z,57.80
2023-03-22T13:15:57.106Z,57.80
2023-03-22T13:18:23.604Z,57.80
2023-03-22T13:20:50.106Z,57.80
2023-03-22T13:23:16.602Z,57.70
2023-03-22T13:25:43.212Z,57.80
2023-03-22T13:28:09.730Z,57.80
2023-03-22T13:30:36.243Z,57.80
2023-03-22T13:33:02.765Z,57.80
2023-03-22T13:35:29.334Z,57.80
2023-03-22T13:37:55.840Z,57.80
2023-03-22T13:40:22.323Z,57.80
2023-03-22T13:42:48.919Z,57.80
2023-03-22T13:45:15.431Z,57.80
2023-03-22T13:47:41.970Z,57.80
2023-03-22T13:50:08.529Z,57.80
2023-03-22T13:52:35.012Z,57.80
2023-03-22T13:55:01.541Z,57.80
2023-03-22T13:57:28.038Z,57.80
2023-03-22T14:00:06.849Z,57.80
2023-03-22T14:02:37.414Z,57.70
2023-03-22T14:05:04.089Z,57.70
2023-03-22T14:07:30.660Z,57.70
2023-03-22T14:09:57.149Z,57.60
2023-03-22T14:12:23.632Z,57.70
2023-03-22T14:14:50.189Z,57.70
2023-03-22T14:17:16.679Z,57.70
2023-03-22T14:19:43.176Z,57.70
